sensor_id;sensor_type;location;lat;lon;timestamp;temperature;humidity
16635;DHT22;8431;52.458;9.998;2023-06-10T00:02:04;14.30;99.90
16635;DHT22;8431;52.458;9.998;2023-06-10T00:04:34;14.20;99.90
16635;DHT22;8431;52.458;9.998;2023-06-10T00:07:02;14.20;99.90
16635;DHT22;8431;52.458;9.998;2023-06-10T00:09:35;14.10;99.90
16635;DHT22;8431;52.458;9.998;2023-06-10T00:12:03;14.00;99.90
16635;DHT22;8431;52.458;9.998;2023-06-10T00:14:30;13.80;99.90
16635;DHT22;8431;52.458;9.998;2023-06-10T00:16:57;13.60;99.90
16635;DHT22;8431;52.458;9.998;2023-06-10T00:19:24;13.40;99.90
16635;DHT22;8431;52.458;9.998;2023-06-10T00:21:56;13.30;99.90
16635;DHT22;8431;52.458;9.998;2023-06-10T00:24:23;13.20;99.90
16635;DHT22;8431;52.458;9.998;2023-06-10T00:26:51;13.10;99.90
16635;DHT22;8431;52.458;9.998;2023-06-10T00:29:19;13.10;99.90
16635;DHT22;8431;52.458;9.998;2023-06-10T00:31:46;13.00;99.90
16635;DHT22;8431;52.458;9.998;2023-06-10T00:34:13;13.00;99.90
16635;DHT22;8431;52.458;9.998;2023-06-10T00:36:40;13.20;99.90
16635;DHT22;8431;52.458;9.998;2023-06-10T00:39:08;13.10;99.90
16635;DHT22;8431;52.458;9.998;2023-06-10T00:41:36;13.20;99.90
16635;DHT22;8431;52.458;9.998;2023-06-10T00:44:04;13.20;99.90
16635;DHT22;8431;52.458;9.998;2023-06-10T00:46:31;13.30;99.90
16635;DHT22;8431;52.458;9.998;2023-06-10T00:48:59;13.40;99.90
16635;DHT22;8431;52.458;9.998;2023-06-10T00:51:26;13.40;99.90
16635;DHT22;8431;52.458;9.998;2023-06-10T00:53:54;13.30;99.90
16635;DHT22;8431;52.458;9.998;2023-06-10T00:56:22;13.10;99.90
16635;DHT22;8431;52.458;9.998;2023-06-10T00:58:49;13.00;99.90
16635;DHT22;8431;52.458;9.998;2023-06-10T01:01:18;12.90;99.90
16635;DHT22;8431;52.458;9.998;2023-06-10T01:03:45;12.90;99.90
16635;DHT22;8431;52.458;9.998;2023-06-10T01:06:20;12.70;99.90
16635;DHT22;8431;52.458;9.998;2023-06-10T01:08:55;12.50;99.90
16635;DHT22;8431;52.458;9.998;2023-06-10T01:11:29;12.40;99.90
16635;DHT22;8431;52.458;9.998;2023-06-10T01:14:01;12.30;99.90
16635;DHT22;8431;52.458;9.998;2023-06-10T01:16:32;12.20;99.90
16635;DHT22;8431;52.458;9.998;2023-06-10T01:19:01;12.10;99.90
16635;DHT22;8431;52.458;9.998;2023-06-10T01:21:29;12.10;99.90
16635;DHT22;8431;52.458;9.998;2023-06-10T01:23:56;12.00;99.90
16635;DHT22;8431;52.458;9.998;2023-06-10T01:26:28;12.20;99.90
16635;DHT22;8431;52.458;9.998;2023-06-10T01:28:59;12.30;99.90
16635;DHT22;8431;52.458;9.998;2023-06-10T01:31:32;12.40;99.90
16635;DHT22;8431;52.458;9.998;2023-06-10T01:34:03;12.40;99.90
16635;DHT22;8431;52.458;9.998;2023-06-10T01:36:35;12.40;99.90
16635;DHT22;8431;52.458;9.998;2023-06-10T01:39:04;12.40;99.90
16635;DHT22;8431;52.458;9.998;2023-06-10T01:41:32;12.40;99.90
16635;DHT22;8431;52.458;9.998;2023-06-10T01:43:59;12.30;99.90
16635;DHT22;8431;52.458;9.998;2023-06-10T01:46:26;12.30;99.90
16635;DHT22;8431;52.458;9.998;2023-06-10T01:48:53;12.30;99.90
16635;DHT22;8431;52.458;9.998;2023-06-10T01:51:20;12.30;99.90
16635;DHT22;8431;52.458;9.998;2023-06-10T01:53:49;12.20;99.90
16635;DHT22;8431;52.458;9.998;2023-06-10T01:56:15;12.10;99.90
16635;DHT22;8431;52.458;9.998;2023-06-10T01:58:47;12.10;99.90
16635;DHT22;8431;52.458;9.998;2023-06-10T02:01:15;12.00;99.90
16635;DHT22;8431;52.458;9.998;2023-06-10T02:03:42;12.00;99.90
16635;DHT22;8431;52.458;9.998;2023-06-10T02:06:09;11.90;99.90
16635;DHT22;8431;52.458;9.998;2023-06-10T02:08:36;12.00;99.90
16635;DHT22;8431;52.458;9.998;2023-06-10T02:11:04;11.90;99.90
16635;DHT22;8431;52.458;9.998;2023-06-10T02:13:32;11.90;99.90
16635;DHT22;8431;52.458;9.998;2023-06-10T02:15:59;11.90;99.90
16635;DHT22;8431;52.458;9.998;2023-06-10T02:18:27;11.80;99.90
16635;DHT22;8431;52.458;9.998;2023-06-10T02:20:54;11.70;99.90
16635;DHT22;8431;52.458;9.998;2023-06-10T02:23:21;11.50;99.90
16635;DHT22;8431;52.458;9.998;2023-06-10T02:25:48;11.60;99.90
16635;DHT22;8431;52.458;9.998;2023-06-10T02:28:16;11.60;99.90
16635;DHT22;8431;52.458;9.998;2023-06-10T02:30:43;11.60;99.90
16635;DHT22;8431;52.458;9.998;2023-06-10T02:33:10;11.50;99.90
16635;DHT22;8431;52.458;9.998;2023-06-10T02:35:38;11.40;99.90
16635;DHT22;8431;52.458;9.998;2023-06-10T02:38:05;11.30;99.90
16635;DHT22;8431;52.458;9.998;2023-06-10T02:40:32;11.30;99.90
16635;DHT22;8431;52.458;9.998;2023-06-10T02:42:59;11.30;99.90
16635;DHT22;8431;52.458;9.998;2023-06-10T02:45:27;11.30;99.90
16635;DHT22;8431;52.458;9.998;2023-06-10T02:47:54;11.20;99.90
16635;DHT22;8431;52.458;9.998;2023-06-10T02:50:21;11.20;99.90
16635;DHT22;8431;52.458;9.998;2023-06-10T02:52:48;11.20;99.90
16635;DHT22;8431;52.458;9.998;2023-06-10T02:55:15;11.20;99.90
16635;DHT22;8431;52.458;9.998;2023-06-10T02:57:42;11.20;99.90
16635;DHT22;8431;52.458;9.998;2023-06-10T03:00:10;11.20;99.90
16635;DHT22;8431;52.458;9.998;2023-06-10T03:02:41;11.20;99.90
16635;DHT22;8431;52.458;9.998;2023-06-10T03:05:08;11.20;99.90
16635;DHT22;8431;52.458;9.998;2023-06-10T03:07:36;11.10;99.90
16635;DHT22;8431;52.458;9.998;2023-06-10T03:10:04;11.10;99.90
16635;DHT22;8431;52.458;9.998;2023-06-10T03:12:32;11.00;99.90
16635;DHT22;8431;52.458;9.998;2023-06-10T03:14:59;10.90;99.90
16635;DHT22;8431;52.458;9.998;2023-06-10T03:17:26;10.90;99.90
16635;DHT22;8431;52.458;9.998;2023-06-10T03:19:54;10.90;99.90
16635;DHT22;8431;52.458;9.998;2023-06-10T03:22:21;10.90;99.90
16635;DHT22;8431;52.458;9.998;2023-06-10T03:24:48;10.90;99.90
16635;DHT22;8431;52.458;9.998;2023-06-10T03:27:16;10.90;99.90
16635;DHT22;8431;52.458;9.998;2023-06-10T03:29:43;11.00;99.90
16635;DHT22;8431;52.458;9.998;2023-06-10T03:32:10;10.90;99.90
16635;DHT22;8431;52.458;9.998;2023-06-10T03:34:37;11.00;99.90
16635;DHT22;8431;52.458;9.998;2023-06-10T03:37:06;11.10;99.90
16635;DHT22;8431;52.458;9.998;2023-06-10T03:39:33;11.10;99.90
16635;DHT22;8431;52.458;9.998;2023-06-10T03:42:00;11.10;99.90
16635;DHT22;8431;52.458;9.998;2023-06-10T03:44:27;11.10;99.90
16635;DHT22;8431;52.458;9.998;2023-06-10T03:46:54;11.10;99.90
16635;DHT22;8431;52.458;9.998;2023-06-10T03:49:22;11.10;99.90
16635;DHT22;8431;52.458;9.998;2023-06-10T03:51:52;11.10;99.90
16635;DHT22;8431;52.458;9.998;2023-06-10T03:54:21;11.20;99.90
16635;DHT22;8431;52.458;9.998;2023-06-10T03:56:48;11.30;99.90
16635;DHT22;8431;52.458;9.998;2023-06-10T03:59:16;11.40;99.90
16635;DHT22;8431;52.458;9.998;2023-06-10T04:01:43;11.60;99.90
16635;DHT22;8431;52.458;9.998;2023-06-10T04:04:11;11.60;99.90
16635;DHT22;8431;52.458;9.998;2023-06-10T04:06:39;11.70;99.90
16635;DHT22;8431;52.458;9.998;2023-06-10T04:09:06;11.80;99.90
16635;DHT22;8431;52.458;9.998;2023-06-10T04:11:36;11.80;99.90
16635;DHT22;8431;52.458;9.998;2023-06-10T04:14:03;11.90;99.90
16635;DHT22;8431;52.458;9.998;2023-06-10T04:16:30;11.90;99.90
16635;DHT22;8431;52.458;9.998;2023-06-10T04:18:58;12.10;99.90
16635;DHT22;8431;52.458;9.998;2023-06-10T04:21:26;12.20;99.90
16635;DHT22;8431;52.458;9.998;2023-06-10T04:23:53;12.30;99.90
16635;DHT22;8431;52.458;9.998;2023-06-10T04:26:20;12.40;99.90
16635;DHT22;8431;52.458;9.998;2023-06-10T04:28:48;12.50;99.90
16635;DHT22;8431;52.458;9.998;2023-06-10T04:31:16;12.60;99.90
16635;DHT22;8431;52.458;9.998;2023-06-10T04:33:43;12.70;99.90
16635;DHT22;8431;52.458;9.998;2023-06-10T04:36:10;12.80;99.90
16635;DHT22;8431;52.458;9.998;2023-06-10T04:38:36;12.90;99.90
16635;DHT22;8431;52.458;9.998;2023-06-10T04:41:03;12.90;99.90
16635;DHT22;8431;52.458;9.998;2023-06-10T04:43:30;12.90;99.90
16635;DHT22;8431;52.458;9.998;2023-06-10T04:45:59;13.00;99.90
16635;DHT22;8431;52.458;9.998;2023-06-10T04:48:26;13.00;99.90
16635;DHT22;8431;52.458;9.998;2023-06-10T04:50:53;13.10;99.90
16635;DHT22;8431;52.458;9.998;2023-06-10T04:53:20;13.30;99.90
16635;DHT22;8431;52.458;9.998;2023-06-10T04:55:47;13.30;99.90
16635;DHT22;8431;52.458;9.998;2023-06-10T04:58:14;13.40;99.90
16635;DHT22;8431;52.458;9.998;2023-06-10T05:00:41;13.50;99.90
16635;DHT22;8431;52.458;9.998;2023-06-10T05:03:10;13.60;99.90
16635;DHT22;8431;52.458;9.998;2023-06-10T05:05:37;13.80;99.90
16635;DHT22;8431;52.458;9.998;2023-06-10T05:08:04;13.80;99.90
16635;DHT22;8431;52.458;9.998;2023-06-10T05:10:31;13.80;99.90
16635;DHT22;8431;52.458;9.998;2023-06-10T05:12:59;13.80;99.90
16635;DHT22;8431;52.458;9.998;2023-06-10T05:15:26;13.90;99.90
16635;DHT22;8431;52.458;9.998;2023-06-10T05:17:53;14.10;99.90
16635;DHT22;8431;52.458;9.998;2023-06-10T05:20:22;14.10;99.90
16635;DHT22;8431;52.458;9.998;2023-06-10T05:22:49;14.10;99.90
16635;DHT22;8431;52.458;9.998;2023-06-10T05:25:16;14.30;99.90
16635;DHT22;8431;52.458;9.998;2023-06-10T05:27:43;14.40;99.90
16635;DHT22;8431;52.458;9.998;2023-06-10T05:30:10;14.50;99.90
16635;DHT22;8431;52.458;9.998;2023-06-10T05:32:37;14.50;99.90
16635;DHT22;8431;52.458;9.998;2023-06-10T05:35:05;14.50;99.90
16635;DHT22;8431;52.458;9.998;2023-06-10T05:37:34;14.70;99.90
16635;DHT22;8431;52.458;9.998;2023-06-10T05:40:03;15.10;99.90
16635;DHT22;8431;52.458;9.998;2023-06-10T05:42:30;15.50;99.90
16635;DHT22;8431;52.458;9.998;2023-06-10T05:44:57;16.20;99.90
16635;DHT22;8431;52.458;9.998;2023-06-10T05:47:24;16.70;99.90
16635;DHT22;8431;52.458;9.998;2023-06-10T05:49:51;17.20;99.90
16635;DHT22;8431;52.458;9.998;2023-06-10T05:52:18;17.40;99.90
16635;DHT22;8431;52.458;9.998;2023-06-10T05:54:47;16.80;99.90
16635;DHT22;8431;52.458;9.998;2023-06-10T05:57:14;16.50;99.90
16635;DHT22;8431;52.458;9.998;2023-06-10T05:59:41;16.10;99.90
16635;DHT22;8431;52.458;9.998;2023-06-10T06:02:08;16.10;99.90
16635;DHT22;8431;52.458;9.998;2023-06-10T06:04:35;16.20;99.90
16635;DHT22;8431;52.458;9.998;2023-06-10T06:07:02;16.20;99.90
16635;DHT22;8431;52.458;9.998;2023-06-10T06:09:30;16.10;99.90
16635;DHT22;8431;52.458;9.998;2023-06-10T06:11:58;16.50;99.90
16635;DHT22;8431;52.458;9.998;2023-06-10T06:14:25;16.50;99.90
16635;DHT22;8431;52.458;9.998;2023-06-10T06:16:52;16.20;99.90
16635;DHT22;8431;52.458;9.998;2023-06-10T06:19:19;15.90;99.90
16635;DHT22;8431;52.458;9.998;2023-06-10T06:21:46;15.70;99.90
16635;DHT22;8431;52.458;9.998;2023-06-10T06:24:14;15.60;99.90
16635;DHT22;8431;52.458;9.998;2023-06-10T06:26:41;15.50;99.90
16635;DHT22;8431;52.458;9.998;2023-06-10T06:29:09;15.60;99.90
16635;DHT22;8431;52.458;9.998;2023-06-10T06:31:36;15.80;99.90
16635;DHT22;8431;52.458;9.998;2023-06-10T06:34:03;15.80;99.90
16635;DHT22;8431;52.458;9.998;2023-06-10T06:36:30;15.80;99.90
16635;DHT22;8431;52.458;9.998;2023-06-10T06:38:57;16.30;99.90
16635;DHT22;8431;52.458;9.998;2023-06-10T06:41:25;16.50;99.90
16635;DHT22;8431;52.458;9.998;2023-06-10T06:43:53;16.60;99.90
16635;DHT22;8431;52.458;9.998;2023-06-10T06:46:22;17.00;99.90
16635;DHT22;8431;52.458;9.998;2023-06-10T06:48:49;17.10;99.90
16635;DHT22;8431;52.458;9.998;2023-06-10T06:51:16;16.90;99.90
16635;DHT22;8431;52.458;9.998;2023-06-10T06:53:46;16.80;99.90
16635;DHT22;8431;52.458;9.998;2023-06-10T06:56:15;16.40;99.90
16635;DHT22;8431;52.458;9.998;2023-06-10T06:58:42;16.20;99.90
16635;DHT22;8431;52.458;9.998;2023-06-10T07:01:09;16.30;99.90
16635;DHT22;8431;52.458;9.998;2023-06-10T07:03:38;16.50;99.90
16635;DHT22;8431;52.458;9.998;2023-06-10T07:06:05;16.70;99.90
16635;DHT22;8431;52.458;9.998;2023-06-10T07:08:32;16.90;99.90
16635;DHT22;8431;52.458;9.998;2023-06-10T07:10:59;16.90;99.90
16635;DHT22;8431;52.458;9.998;2023-06-10T07:13:26;16.70;99.90
16635;DHT22;8431;52.458;9.998;2023-06-10T07:15:53;16.50;99.90
16635;DHT22;8431;52.458;9.998;2023-06-10T07:18:20;16.50;99.90
16635;DHT22;8431;52.458;9.998;2023-06-10T07:20:48;16.60;99.90
16635;DHT22;8431;52.458;9.998;2023-06-10T07:23:15;16.80;99.90
16635;DHT22;8431;52.458;9.998;2023-06-10T07:25:42;16.90;99.90
16635;DHT22;8431;52.458;9.998;2023-06-10T07:28:09;16.90;99.90
16635;DHT22;8431;52.458;9.998;2023-06-10T07:30:39;16.90;99.90
16635;DHT22;8431;52.458;9.998;2023-06-10T07:33:06;17.10;99.90
16635;DHT22;8431;52.458;9.998;2023-06-10T07:35:33;17.20;99.90
16635;DHT22;8431;52.458;9.998;2023-06-10T07:38:01;17.30;99.90
16635;DHT22;8431;52.458;9.998;2023-06-10T07:40:28;17.40;99.90
16635;DHT22;8431;52.458;9.998;2023-06-10T07:42:55;17.60;99.90
16635;DHT22;8431;52.458;9.998;2023-06-10T07:45:23;17.60;99.90
16635;DHT22;8431;52.458;9.998;2023-06-10T07:47:50;17.70;99.90
16635;DHT22;8431;52.458;9.998;2023-06-10T07:50:18;17.80;99.90
16635;DHT22;8431;52.458;9.998;2023-06-10T07:52:44;17.90;99.90
16635;DHT22;8431;52.458;9.998;2023-06-10T07:55:13;18.00;99.90
16635;DHT22;8431;52.458;9.998;2023-06-10T07:57:40;18.10;99.90
16635;DHT22;8431;52.458;9.998;2023-06-10T08:00:10;18.10;99.90
16635;DHT22;8431;52.458;9.998;2023-06-10T08:02:37;18.00;99.90
16635;DHT22;8431;52.458;9.998;2023-06-10T08:05:05;18.10;99.90
16635;DHT22;8431;52.458;9.998;2023-06-10T08:07:32;18.20;99.90
16635;DHT22;8431;52.458;9.998;2023-06-10T08:09:59;18.20;99.90
16635;DHT22;8431;52.458;9.998;2023-06-10T08:12:31;18.30;99.90
16635;DHT22;8431;52.458;9.998;2023-06-10T08:14:59;18.30;99.90
16635;DHT22;8431;52.458;9.998;2023-06-10T08:17:26;18.40;99.90
16635;DHT22;8431;52.458;9.998;2023-06-10T08:19:53;18.40;99.90
16635;DHT22;8431;52.458;9.998;2023-06-10T08:22:20;18.60;99.90
16635;DHT22;8431;52.458;9.998;2023-06-10T08:24:47;18.70;99.90
16635;DHT22;8431;52.458;9.998;2023-06-10T08:27:14;18.90;99.90
16635;DHT22;8431;52.458;9.998;2023-06-10T08:29:42;18.90;99.90
16635;DHT22;8431;52.458;9.998;2023-06-10T08:32:09;19.10;99.90
16635;DHT22;8431;52.458;9.998;2023-06-10T08:34:36;19.30;99.90
16635;DHT22;8431;52.458;9.998;2023-06-10T08:37:07;19.40;99.90
16635;DHT22;8431;52.458;9.998;2023-06-10T08:39:34;19.50;99.90
16635;DHT22;8431;52.458;9.998;2023-06-10T08:42:16;19.60;99.90
16635;DHT22;8431;52.458;9.998;2023-06-10T08:44:51;19.60;99.90
16635;DHT22;8431;52.458;9.998;2023-06-10T08:47:20;19.70;99.90
16635;DHT22;8431;52.458;9.998;2023-06-10T08:49:48;19.70;99.90
16635;DHT22;8431;52.458;9.998;2023-06-10T08:52:17;19.90;99.90
16635;DHT22;8431;52.458;9.998;2023-06-10T08:54:49;20.00;99.90
16635;DHT22;8431;52.458;9.998;2023-06-10T08:57:20;20.30;99.90
16635;DHT22;8431;52.458;9.998;2023-06-10T08:59:49;20.50;99.90
16635;DHT22;8431;52.458;9.998;2023-06-10T09:02:16;20.60;99.90
16635;DHT22;8431;52.458;9.998;2023-06-10T09:04:46;20.70;99.90
16635;DHT22;8431;52.458;9.998;2023-06-10T09:07:16;20.90;99.90
16635;DHT22;8431;52.458;9.998;2023-06-10T09:09:44;21.00;99.90
16635;DHT22;8431;52.458;9.998;2023-06-10T09:12:12;21.30;99.90
16635;DHT22;8431;52.458;9.998;2023-06-10T09:14:39;21.30;99.90
16635;DHT22;8431;52.458;9.998;2023-06-10T09:17:08;21.50;99.90
16635;DHT22;8431;52.458;9.998;2023-06-10T09:19:35;21.60;99.90
16635;DHT22;8431;52.458;9.998;2023-06-10T09:22:03;21.90;99.90
16635;DHT22;8431;52.458;9.998;2023-06-10T09:24:36;21.80;99.90
16635;DHT22;8431;52.458;9.998;2023-06-10T09:27:07;21.80;99.90
16635;DHT22;8431;52.458;9.998;2023-06-10T09:29:46;21.90;99.90
16635;DHT22;8431;52.458;9.998;2023-06-10T09:32:24;22.00;99.90
16635;DHT22;8431;52.458;9.998;2023-06-10T09:34:52;22.10;99.90
16635;DHT22;8431;52.458;9.998;2023-06-10T09:37:22;22.10;99.90
16635;DHT22;8431;52.458;9.998;2023-06-10T09:40:02;22.10;99.90
16635;DHT22;8431;52.458;9.998;2023-06-10T09:42:33;22.40;99.90
16635;DHT22;8431;52.458;9.998;2023-06-10T09:45:01;22.60;99.90
16635;DHT22;8431;52.458;9.998;2023-06-10T09:47:30;22.70;99.90
16635;DHT22;8431;52.458;9.998;2023-06-10T09:50:02;22.90;99.90
16635;DHT22;8431;52.458;9.998;2023-06-10T09:52:29;23.00;99.90
16635;DHT22;8431;52.458;9.998;2023-06-10T09:54:59;23.00;99.90
16635;DHT22;8431;52.458;9.998;2023-06-10T09:57:33;22.90;99.90
16635;DHT22;8431;52.458;9.998;2023-06-10T10:00:05;23.00;99.90
16635;DHT22;8431;52.458;9.998;2023-06-10T10:02:46;23.00;99.90
16635;DHT22;8431;52.458;9.998;2023-06-10T10:05:14;23.00;99.90
16635;DHT22;8431;52.458;9.998;2023-06-10T10:07:42;23.00;99.90
16635;DHT22;8431;52.458;9.998;2023-06-10T10:10:10;23.00;99.90
16635;DHT22;8431;52.458;9.998;2023-06-10T10:12:38;23.10;99.90
16635;DHT22;8431;52.458;9.998;2023-06-10T10:15:09;23.30;99.90
16635;DHT22;8431;52.458;9.998;2023-06-10T10:17:41;23.50;99.90
16635;DHT22;8431;52.458;9.998;2023-06-10T10:20:14;23.70;99.90
16635;DHT22;8431;52.458;9.998;2023-06-10T10:22:47;23.70;99.90
16635;DHT22;8431;52.458;9.998;2023-06-10T10:25:23;23.70;99.90
16635;DHT22;8431;52.458;9.998;2023-06-10T10:27:52;23.80;99.90
16635;DHT22;8431;52.458;9.998;2023-06-10T10:30:22;24.00;99.90
16635;DHT22;8431;52.458;9.998;2023-06-10T10:32:57;24.10;99.90
16635;DHT22;8431;52.458;9.998;2023-06-10T10:35:25;24.10;99.90
16635;DHT22;8431;52.458;9.998;2023-06-10T10:37:53;24.20;99.90
16635;DHT22;8431;52.458;9.998;2023-06-10T10:40:21;24.20;99.90
16635;DHT22;8431;52.458;9.998;2023-06-10T10:42:49;24.30;99.90
16635;DHT22;8431;52.458;9.998;2023-06-10T10:45:16;24.10;99.90
16635;DHT22;8431;52.458;9.998;2023-06-10T10:47:45;24.20;99.90
16635;DHT22;8431;52.458;9.998;2023-06-10T10:50:15;24.10;99.90
16635;DHT22;8431;52.458;9.998;2023-06-10T10:52:54;24.20;99.90
16635;DHT22;8431;52.458;9.998;2023-06-10T10:55:23;24.50;99.90
16635;DHT22;8431;52.458;9.998;2023-06-10T10:57:57;24.60;99.90
16635;DHT22;8431;52.458;9.998;2023-06-10T11:00:27;24.50;99.90
16635;DHT22;8431;52.458;9.998;2023-06-10T11:02:58;24.60;99.90
16635;DHT22;8431;52.458;9.998;2023-06-10T11:05:36;24.70;99.90
16635;DHT22;8431;52.458;9.998;2023-06-10T11:08:04;24.80;99.90
16635;DHT22;8431;52.458;9.998;2023-06-10T11:10:39;25.00;99.90
16635;DHT22;8431;52.458;9.998;2023-06-10T11:13:07;24.90;99.90
16635;DHT22;8431;52.458;9.998;2023-06-10T11:15:39;25.20;99.90
16635;DHT22;8431;52.458;9.998;2023-06-10T11:18:12;25.40;99.90
16635;DHT22;8431;52.458;9.998;2023-06-10T11:20:51;25.30;99.90
16635;DHT22;8431;52.458;9.998;2023-06-10T11:23:38;25.20;99.90
16635;DHT22;8431;52.458;9.998;2023-06-10T11:26:17;25.60;99.90
16635;DHT22;8431;52.458;9.998;2023-06-10T11:29:08;25.90;99.90
16635;DHT22;8431;52.458;9.998;2023-06-10T11:31:43;26.00;99.90
16635;DHT22;8431;52.458;9.998;2023-06-10T11:34:11;26.10;99.90
16635;DHT22;8431;52.458;9.998;2023-06-10T11:36:42;26.00;99.90
16635;DHT22;8431;52.458;9.998;2023-06-10T11:39:11;25.90;99.90
16635;DHT22;8431;52.458;9.998;2023-06-10T11:41:39;26.00;99.90
16635;DHT22;8431;52.458;9.998;2023-06-10T11:44:10;26.10;99.90
16635;DHT22;8431;52.458;9.998;2023-06-10T11:46:38;26.10;99.90
16635;DHT22;8431;52.458;9.998;2023-06-10T11:54:09;26.20;99.90
16635;DHT22;8431;52.458;9.998;2023-06-10T11:56:37;26.30;99.90
16635;DHT22;8431;52.458;9.998;2023-06-10T11:59:06;26.40;99.90
16635;DHT22;8431;52.458;9.998;2023-06-10T12:01:34;26.60;99.90
16635;DHT22;8431;52.458;9.998;2023-06-10T12:04:03;26.80;99.90
16635;DHT22;8431;52.458;9.998;2023-06-10T12:06:41;26.70;99.90
16635;DHT22;8431;52.458;9.998;2023-06-10T12:09:15;26.50;99.90
16635;DHT22;8431;52.458;9.998;2023-06-10T12:11:43;26.70;99.90
16635;DHT22;8431;52.458;9.998;2023-06-10T12:14:10;26.70;99.90
16635;DHT22;8431;52.458;9.998;2023-06-10T12:16:37;26.90;99.90
16635;DHT22;8431;52.458;9.998;2023-06-10T12:19:05;27.10;99.90
16635;DHT22;8431;52.458;9.998;2023-06-10T12:21:34;27.30;99.90
16635;DHT22;8431;52.458;9.998;2023-06-10T12:24:06;27.40;99.90
16635;DHT22;8431;52.458;9.998;2023-06-10T12:26:40;27.30;99.90
16635;DHT22;8431;52.458;9.998;2023-06-10T12:29:21;27.20;99.90
16635;DHT22;8431;52.458;9.998;2023-06-10T12:32:00;27.00;99.90
16635;DHT22;8431;52.458;9.998;2023-06-10T12:34:33;27.20;99.90
16635;DHT22;8431;52.458;9.998;2023-06-10T12:37:01;27.40;99.90
16635;DHT22;8431;52.458;9.998;2023-06-10T12:39:30;27.60;99.90
16635;DHT22;8431;52.458;9.998;2023-06-10T12:41:59;27.90;99.90
16635;DHT22;8431;52.458;9.998;2023-06-10T12:44:33;28.10;99.90
16635;DHT22;8431;52.458;9.998;2023-06-10T12:47:06;28.00;99.90
16635;DHT22;8431;52.458;9.998;2023-06-10T12:49:34;27.80;99.90
16635;DHT22;8431;52.458;9.998;2023-06-10T12:52:02;27.70;99.90
16635;DHT22;8431;52.458;9.998;2023-06-10T12:54:29;27.70;99.90
16635;DHT22;8431;52.458;9.998;2023-06-10T12:56:56;27.80;99.90
16635;DHT22;8431;52.458;9.998;2023-06-10T12:59:24;27.90;99.90
16635;DHT22;8431;52.458;9.998;2023-06-10T13:01:51;27.90;99.90
16635;DHT22;8431;52.458;9.998;2023-06-10T13:04:18;28.00;99.90
16635;DHT22;8431;52.458;9.998;2023-06-10T13:06:47;28.10;99.90
16635;DHT22;8431;52.458;9.998;2023-06-10T13:09:14;28.10;99.90
16635;DHT22;8431;52.458;9.998;2023-06-10T13:11:42;28.30;99.90
16635;DHT22;8431;52.458;9.998;2023-06-10T13:14:10;28.40;99.90
16635;DHT22;8431;52.458;9.998;2023-06-10T13:16:38;28.40;99.90
16635;DHT22;8431;52.458;9.998;2023-06-10T13:19:06;28.70;99.90
16635;DHT22;8431;52.458;9.998;2023-06-10T13:21:33;29.10;99.90
16635;DHT22;8431;52.458;9.998;2023-06-10T13:24:00;29.50;99.90
16635;DHT22;8431;52.458;9.998;2023-06-10T13:26:28;29.80;99.90
16635;DHT22;8431;52.458;9.998;2023-06-10T13:28:54;29.70;99.90
16635;DHT22;8431;52.458;9.998;2023-06-10T13:31:22;29.60;99.90
16635;DHT22;8431;52.458;9.998;2023-06-10T13:33:51;29.40;99.90
16635;DHT22;8431;52.458;9.998;2023-06-10T13:36:21;29.20;99.90
16635;DHT22;8431;52.458;9.998;2023-06-10T13:38:49;29.50;99.90
16635;DHT22;8431;52.458;9.998;2023-06-10T13:41:16;29.30;99.90
16635;DHT22;8431;52.458;9.998;2023-06-10T13:43:43;29.10;99.90
16635;DHT22;8431;52.458;9.998;2023-06-10T13:46:10;29.00;99.90
16635;DHT22;8431;52.458;9.998;2023-06-10T13:48:37;28.90;99.90
16635;DHT22;8431;52.458;9.998;2023-06-10T13:51:06;28.80;99.90
16635;DHT22;8431;52.458;9.998;2023-06-10T13:53:34;28.90;99.90
16635;DHT22;8431;52.458;9.998;2023-06-10T13:56:01;28.80;99.90
16635;DHT22;8431;52.458;9.998;2023-06-10T13:58:28;29.10;99.90
16635;DHT22;8431;52.458;9.998;2023-06-10T14:00:55;29.40;99.90
16635;DHT22;8431;52.458;9.998;2023-06-10T14:03:24;29.20;99.90
16635;DHT22;8431;52.458;9.998;2023-06-10T14:05:51;29.20;99.90
16635;DHT22;8431;52.458;9.998;2023-06-10T14:08:19;29.50;99.90
16635;DHT22;8431;52.458;9.998;2023-06-10T14:10:46;29.60;99.90
16635;DHT22;8431;52.458;9.998;2023-06-10T14:13:13;29.40;99.90
16635;DHT22;8431;52.458;9.998;2023-06-10T14:15:41;29.20;99.90
16635;DHT22;8431;52.458;9.998;2023-06-10T14:18:08;29.20;99.90
16635;DHT22;8431;52.458;9.998;2023-06-10T14:20:34;29.10;99.90
16635;DHT22;8431;52.458;9.998;2023-06-10T14:23:02;29.30;99.90
16635;DHT22;8431;52.458;9.998;2023-06-10T14:25:33;29.40;99.90
16635;DHT22;8431;52.458;9.998;2023-06-10T14:28:00;29.50;99.90
16635;DHT22;8431;52.458;9.998;2023-06-10T14:30:27;29.60;99.90
16635;DHT22;8431;52.458;9.998;2023-06-10T14:32:54;29.30;99.90
16635;DHT22;8431;52.458;9.998;2023-06-10T14:35:21;29.10;99.90
16635;DHT22;8431;52.458;9.998;2023-06-10T14:37:48;29.10;99.90
16635;DHT22;8431;52.458;9.998;2023-06-10T14:40:15;29.00;99.90
16635;DHT22;8431;52.458;9.998;2023-06-10T14:42:43;29.10;99.90
16635;DHT22;8431;52.458;9.998;2023-06-10T14:45:10;29.00;99.90
16635;DHT22;8431;52.458;9.998;2023-06-10T14:47:37;28.80;99.90
16635;DHT22;8431;52.458;9.998;2023-06-10T14:50:05;28.80;99.90
16635;DHT22;8431;52.458;9.998;2023-06-10T14:52:32;28.90;99.90
16635;DHT22;8431;52.458;9.998;2023-06-10T14:54:59;29.00;99.90
16635;DHT22;8431;52.458;9.998;2023-06-10T14:57:26;29.00;99.90
16635;DHT22;8431;52.458;9.998;2023-06-10T14:59:54;29.40;99.90
16635;DHT22;8431;52.458;9.998;2023-06-10T15:02:22;29.50;99.90
16635;DHT22;8431;52.458;9.998;2023-06-10T15:04:49;29.50;99.90
16635;DHT22;8431;52.458;9.998;2023-06-10T15:07:16;29.40;99.90
16635;DHT22;8431;52.458;9.998;2023-06-10T15:09:43;29.40;99.90
16635;DHT22;8431;52.458;9.998;2023-06-10T15:12:10;29.50;99.90
16635;DHT22;8431;52.458;9.998;2023-06-10T15:14:37;29.40;99.90
16635;DHT22;8431;52.458;9.998;2023-06-10T15:17:07;29.30;99.90
16635;DHT22;8431;52.458;9.998;2023-06-10T15:19:35;29.30;99.90
16635;DHT22;8431;52.458;9.998;2023-06-10T15:22:02;29.20;99.90
16635;DHT22;8431;52.458;9.998;2023-06-10T15:24:29;29.00;99.90
16635;DHT22;8431;52.458;9.998;2023-06-10T15:26:56;28.80;99.90
16635;DHT22;8431;52.458;9.998;2023-06-10T15:29:23;29.00;99.90
16635;DHT22;8431;52.458;9.998;2023-06-10T15:31:50;29.20;99.90
16635;DHT22;8431;52.458;9.998;2023-06-10T15:34:19;29.30;99.90
16635;DHT22;8431;52.458;9.998;2023-06-10T15:36:46;29.30;99.90
16635;DHT22;8431;52.458;9.998;2023-06-10T15:39:13;29.00;99.90
16635;DHT22;8431;52.458;9.998;2023-06-10T15:41:40;29.00;99.90
16635;DHT22;8431;52.458;9.998;2023-06-10T15:44:07;28.90;99.90
16635;DHT22;8431;52.458;9.998;2023-06-10T15:46:34;28.90;99.60
16635;DHT22;8431;52.458;9.998;2023-06-10T15:49:01;29.00;99.60
16635;DHT22;8431;52.458;9.998;2023-06-10T15:51:30;28.90;99.80
16635;DHT22;8431;52.458;9.998;2023-06-10T15:53:57;29.20;98.40
16635;DHT22;8431;52.458;9.998;2023-06-10T15:56:24;29.30;97.40
16635;DHT22;8431;52.458;9.998;2023-06-10T15:58:51;29.40;97.40